Time;durP1;ratioP1;P1;durP2;ratioP2;P2;SDS_P1;SDS_P2;PMS_P1;PMS_P2;Temp;Humidity;BMP_temperature;BMP_pressure;BME280_temperature;BME280_humidity;BME280_pressure;Samples;Min_cycle;Max_cycle;Signal;HPM_P1;HPM_P2
2023/06/29 00:01:04;;;;;;;34.25;21.25;;;;;;;24.22;54.84;101551.00;4984663;28;123791;-75
2023/06/29 00:03:31;;;;;;;31.05;21.48;;;;;;;24.22;54.91;101557.31;4985283;28;119161;-75
2023/06/29 00:06:00;;;;;;;29.75;21.50;;;;;;;24.21;55.21;101561.00;4986153;28;119411;-75
2023/06/29 00:08:35;;;;;;;31.35;21.73;;;;;;;24.19;54.97;101552.16;4985485;28;125567;-75
2023/06/29 00:11:03;;;;;;;29.33;20.52;;;;;;;24.15;55.14;101545.31;4983443;28;124428;-75
2023/06/29 00:13:30;;;;;;;34.08;22.23;;;;;;;24.14;55.25;101549.00;4984502;28;120244;-75
2023/06/29 00:15:57;;;;;;;31.25;21.70;;;;;;;24.13;55.46;101552.72;4968086;28;118378;-75
2023/06/29 00:18:27;;;;;;;31.83;21.63;;;;;;;24.12;55.42;101545.59;4973079;28;123980;-75
2023/06/29 00:20:56;;;;;;;32.28;21.02;;;;;;;24.12;55.52;101545.59;4985718;28;123839;-75
2023/06/29 00:23:24;;;;;;;32.70;21.92;;;;;;;24.12;55.57;101545.59;4985774;28;120059;-75
2023/06/29 00:25:53;;;;;;;31.95;21.98;;;;;;;24.12;55.49;101544.75;4985828;28;118757;-75
2023/06/29 00:28:20;;;;;;;29.98;21.63;;;;;;;24.10;55.92;101539.47;4986687;28;124817;-75
2023/06/29 00:30:47;;;;;;;35.22;23.65;;;;;;;24.11;55.62;101543.91;4985098;28;123975;-75
2023/06/29 00:33:16;;;;;;;34.67;23.00;;;;;;;24.10;55.71;101540.31;5000622;28;119649;-75
2023/06/29 00:35:43;;;;;;;31.30;22.70;;;;;;;24.10;55.78;101539.47;4988644;28;119875;-75
2023/06/29 00:38:11;;;;;;;35.13;24.30;;;;;;;24.09;55.94;101543.16;4996252;28;124359;-75
2023/06/29 00:40:38;;;;;;;35.45;24.52;;;;;;;24.09;55.81;101541.31;4990926;28;124021;-75
2023/06/29 00:43:05;;;;;;;31.35;22.88;;;;;;;24.10;55.98;101539.47;4989105;28;119380;-75
2023/06/29 00:45:33;;;;;;;34.08;23.80;;;;;;;24.11;55.70;101538.50;4970909;28;118325;-75
2023/06/29 00:48:00;;;;;;;33.90;24.15;;;;;;;24.10;55.99;101539.47;5000444;28;123810;-75
2023/06/29 00:50:28;;;;;;;36.92;24.55;;;;;;;24.10;56.10;101534.06;4988754;28;124388;-75
2023/06/29 00:52:55;;;;;;;34.10;23.67;;;;;;;24.09;55.92;101526.91;4988773;28;119124;-75
2023/06/29 00:55:23;;;;;;;33.65;23.35;;;;;;;24.09;56.05;101529.63;4971303;28;118598;-75
2023/06/29 00:57:52;;;;;;;33.60;23.90;;;;;;;24.09;55.88;101529.63;4988410;28;123730;-75
2023/06/29 01:00:19;;;;;;;32.35;22.90;;;;;;;24.08;55.92;101525.22;4989041;28;123892;-74
2023/06/29 01:02:48;;;;;;;34.25;22.92;;;;;;;24.08;56.18;101527.94;4969887;28;118882;-75
2023/06/29 01:05:16;;;;;;;34.95;23.38;;;;;;;24.07;56.30;101515.38;4973663;28;120020;-75
2023/06/29 01:08:13;;;;;;;36.47;24.80;;;;;;;24.05;56.34;101522.78;4970029;28;123698;-75
2023/06/29 01:10:42;;;;;;;37.33;23.80;;;;;;;24.03;56.17;101513.97;4968563;28;123539;-75
2023/06/29 01:13:09;;;;;;;34.90;23.25;;;;;;;24.03;56.33;101513.97;4988075;28;119406;-74
2023/06/29 01:15:38;;;;;;;37.15;24.20;;;;;;;24.01;56.36;101505.97;4970824;28;119358;-75
2023/06/29 01:18:07;;;;;;;33.90;23.65;;;;;;;24.01;56.36;101505.13;4970725;28;124299;-75
2023/06/29 01:20:35;;;;;;;37.33;24.73;;;;;;;24.00;56.41;101509.69;4988735;28;124276;-75
2023/06/29 01:23:19;;;;;;;33.90;23.48;;;;;;;23.99;56.50;101507.13;4983116;28;119254;-75
2023/06/29 01:25:46;;;;;;;34.50;24.15;;;;;;;23.97;56.49;101504.56;4969964;28;117798;-75
2023/06/29 01:28:13;;;;;;;39.60;25.45;;;;;;;23.96;56.54;101512.81;4988203;28;124335;-75
2023/06/29 01:30:49;;;;;;;37.05;25.27;;;;;;;23.94;56.66;101502.16;4969102;28;124280;-75
2023/06/29 01:33:22;;;;;;;35.75;24.75;;;;;;;23.90;56.69;101509.69;4985503;28;119313;-75
2023/06/29 01:35:56;;;;;;;36.13;24.63;;;;;;;23.90;56.94;101509.69;4988099;28;119840;-75
2023/06/29 01:38:30;;;;;;;37.28;24.83;;;;;;;23.88;56.74;101500.84;4996981;28;124231;-74
2023/06/29 01:40:59;;;;;;;35.78;24.27;;;;;;;23.85;56.69;101501.13;4986417;28;124058;-75
2023/06/29 01:43:30;;;;;;;34.75;25.02;;;;;;;23.82;56.83;101506.81;4988018;28;119719;-75
2023/06/29 01:45:58;;;;;;;37.03;25.05;;;;;;;23.77;56.72;101498.25;4989010;28;119270;-75
2023/06/29 01:48:26;;;;;;;34.63;24.85;;;;;;;23.73;56.94;101502.19;4970514;28;123396;-75
2023/06/29 01:50:54;;;;;;;37.50;25.77;;;;;;;23.73;56.93;101501.34;4936230;28;124481;-75
2023/06/29 01:53:21;;;;;;;35.65;25.15;;;;;;;23.72;57.11;101495.09;4978552;28;120131;-75
2023/06/29 01:55:48;;;;;;;34.45;25.75;;;;;;;23.72;57.14;101500.50;4985709;28;119891;-75
2023/06/29 01:58:15;;;;;;;31.25;22.83;;;;;;;23.73;57.04;101496.78;4969111;28;122285;-75
2023/06/29 02:00:43;;;;;;;35.25;24.33;;;;;;;23.74;57.15;101497.66;4985593;28;122988;-75
2023/06/29 02:03:10;;;;;;;35.25;24.38;;;;;;;23.76;57.11;101495.66;4974650;28;119158;-75
2023/06/29 02:05:37;;;;;;;36.70;25.15;;;;;;;23.76;57.15;101491.09;4987741;28;119257;-75
2023/06/29 02:08:05;;;;;;;36.72;24.70;;;;;;;23.76;57.10;101485.69;4987510;28;124247;-74
2023/06/29 02:10:32;;;;;;;37.20;25.45;;;;;;;23.78;57.15;101488.25;4996380;28;123508;-75
2023/06/29 02:12:59;;;;;;;37.42;25.08;;;;;;;23.78;57.03;101494.53;4991711;28;119212;-76
2023/06/29 02:15:26;;;;;;;36.72;25.65;;;;;;;23.78;57.19;101483.69;4959370;28;119191;-75
2023/06/29 02:17:53;;;;;;;34.67;24.77;;;;;;;23.79;57.33;101485.47;4969201;28;123342;-75
2023/06/29 02:20:21;;;;;;;39.88;26.40;;;;;;;23.78;57.13;101486.41;4987750;28;124637;-75
2023/06/29 02:22:48;;;;;;;36.72;25.92;;;;;;;23.77;57.21;101487.41;4969336;28;118437;-75
2023/06/29 02:25:17;;;;;;;36.65;25.35;;;;;;;23.77;57.25;101482.00;4987270;28;119793;-75
2023/06/29 02:27:44;;;;;;;36.35;24.15;;;;;;;23.78;57.00;101478.28;4987157;28;124470;-75
2023/06/29 02:30:13;;;;;;;35.28;25.33;;;;;;;23.77;56.88;101476.59;4987434;28;124254;-75
2023/06/29 02:32:40;;;;;;;38.33;25.60;;;;;;;23.78;57.06;101472.88;4987575;28;119324;-75
2023/06/29 02:35:08;;;;;;;41.00;26.35;;;;;;;23.77;57.16;101476.59;4968873;28;118497;-75
2023/06/29 02:37:37;;;;;;;37.83;25.23;;;;;;;23.78;57.04;101472.88;4974149;28;123735;-75
2023/06/29 02:40:05;;;;;;;37.80;25.58;;;;;;;23.75;57.03;101470.44;4960840;28;123086;-75
2023/06/29 02:42:33;;;;;;;40.75;25.52;;;;;;;23.71;57.21;101466.31;4968624;28;120547;-75
2023/06/29 02:45:00;;;;;;;41.17;26.10;;;;;;;23.66;57.27;101464.03;4968903;28;120139;-75
2023/06/29 02:47:29;;;;;;;36.65;24.50;;;;;;;23.65;57.29;101461.47;4987313;28;125192;-75
2023/06/29 02:49:58;;;;;;;36.72;25.20;;;;;;;23.62;57.43;101467.16;4968667;28;123758;-75
2023/06/29 02:52:29;;;;;;;34.05;23.95;;;;;;;23.62;57.46;101456.31;4956193;28;121066;-75
2023/06/29 02:54:56;;;;;;;36.58;24.45;;;;;;;23.63;57.51;101458.06;4986667;28;119607;-75
2023/06/29 02:57:23;;;;;;;37.13;24.25;;;;;;;23.61;57.68;101454.63;4970503;28;123969;-74
2023/06/29 02:59:50;;;;;;;37.30;24.73;;;;;;;23.61;57.62;101457.34;4990067;28;123467;-75
2023/06/29 03:02:18;;;;;;;35.70;24.55;;;;;;;23.61;57.76;101454.63;4952320;28;118074;-75
2023/06/29 03:04:45;;;;;;;35.35;24.20;;;;;;;23.60;57.76;101452.91;4986910;28;118984;-75
2023/06/29 03:07:12;;;;;;;34.08;23.02;;;;;;;23.59;57.82;101456.63;4968943;28;123460;-75
2023/06/29 03:09:39;;;;;;;34.45;23.50;;;;;;;23.57;57.83;101453.22;4986662;28;123861;-75
2023/06/29 03:12:09;;;;;;;33.67;22.58;;;;;;;23.59;57.88;101462.03;4986907;28;119705;-75
2023/06/29 03:14:36;;;;;;;33.95;23.45;;;;;;;23.59;57.78;101456.63;4986153;28;119071;-75
2023/06/29 03:17:03;;;;;;;37.03;24.15;;;;;;;23.59;57.76;101452.06;4952306;28;123629;-75
2023/06/29 03:19:31;;;;;;;36.40;24.15;;;;;;;23.58;57.85;101449.50;4964784;28;124635;-75
2023/06/29 03:21:58;;;;;;;32.92;23.27;;;;;;;23.58;57.84;101449.50;4986190;28;118018;-74
2023/06/29 03:24:25;;;;;;;33.70;22.95;;;;;;;23.60;58.04;101447.50;4965821;28;118728;-76
2023/06/29 03:26:52;;;;;;;32.53;22.27;;;;;;;23.58;57.84;101449.50;4986342;28;124382;-74
2023/06/29 03:29:20;;;;;;;36.67;23.60;;;;;;;23.59;57.74;101445.81;4984304;28;123819;-75
2023/06/29 03:31:47;;;;;;;35.35;23.65;;;;;;;23.59;57.98;101451.22;4985893;28;121338;-75
2023/06/29 03:34:14;;;;;;;32.50;23.17;;;;;;;23.59;57.95;101445.81;4986195;28;120559;-75
2023/06/29 03:36:41;;;;;;;33.08;23.40;;;;;;;23.59;57.85;101446.66;4986259;28;123858;-75
2023/06/29 03:39:08;;;;;;;36.33;24.15;;;;;;;23.58;57.93;101438.69;4999683;28;124401;-74
2023/06/29 03:41:35;;;;;;;33.88;22.40;;;;;;;23.57;58.03;101436.97;4986696;28;119334;-75
2023/06/29 03:44:03;;;;;;;33.58;23.27;;;;;;;23.56;58.04;101435.25;4967263;28;118692;-75
2023/06/29 03:46:30;;;;;;;32.42;22.58;;;;;;;23.56;57.97;101436.09;4987057;28;124811;-75
2023/06/29 03:48:57;;;;;;;33.22;23.23;;;;;;;23.57;58.10;101431.56;4986376;28;123907;-75
2023/06/29 03:51:24;;;;;;;33.50;22.73;;;;;;;23.57;58.06;101431.56;4968515;28;118729;-75
2023/06/29 03:53:51;;;;;;;34.55;22.58;;;;;;;23.56;57.94;101422.59;4967886;28;118594;-75
2023/06/29 03:56:18;;;;;;;33.13;22.17;;;;;;;23.55;58.00;101429.00;4992520;28;123838;-75
2023/06/29 03:58:45;;;;;;;32.25;22.30;;;;;;;23.57;58.17;101426.16;4983726;28;124707;-75
2023/06/29 04:01:13;;;;;;;37.60;22.75;;;;;;;23.56;58.11;101419.88;4986195;28;119189;-75
2023/06/29 04:03:40;;;;;;;34.40;23.98;;;;;;;23.58;57.97;101419.75;4985426;28;118500;-75
2023/06/29 04:06:07;;;;;;;32.40;22.88;;;;;;;23.59;58.15;101418.78;4983764;28;125457;-75
2023/06/29 04:08:34;;;;;;;36.45;23.58;;;;;;;23.60;58.17;101420.47;4974476;28;125019;-75
2023/06/29 04:11:01;;;;;;;34.00;22.45;;;;;;;23.59;58.06;101418.78;4996608;28;119172;-75
2023/06/29 04:13:29;;;;;;;34.17;22.35;;;;;;;23.59;58.05;101418.78;5008745;28;118934;-75
2023/06/29 04:15:56;;;;;;;34.42;23.05;;;;;;;23.60;58.02;101420.47;4996752;28;124883;-75
2023/06/29 04:18:23;;;;;;;35.55;23.25;;;;;;;23.58;58.02;101411.63;4999160;28;123916;-75
2023/06/29 04:20:51;;;;;;;33.03;22.23;;;;;;;23.57;58.04;101416.19;5015220;28;120249;-75
2023/06/29 04:23:18;;;;;;;33.97;22.65;;;;;;;23.57;58.13;101415.34;5006195;28;121241;-75
2023/06/29 04:25:46;;;;;;;33.45;23.17;;;;;;;23.57;58.28;101416.19;4988765;28;123493;-75
2023/06/29 04:28:13;;;;;;;36.03;24.30;;;;;;;23.58;58.15;101411.63;4975830;28;121663;-75
2023/06/29 04:30:41;;;;;;;34.22;22.92;;;;;;;23.58;58.16;101417.03;4990166;28;118763;-75
2023/06/29 04:33:10;;;;;;;35.55;24.05;;;;;;;23.59;58.36;101413.38;4973012;28;118497;-75
2023/06/29 04:35:42;;;;;;;35.58;23.13;;;;;;;23.58;58.17;101407.06;4991417;28;124525;-75
2023/06/29 04:38:10;;;;;;;35.35;23.02;;;;;;;23.59;58.24;101407.94;4998025;28;123801;-75
2023/06/29 04:40:37;;;;;;;32.72;22.50;;;;;;;23.60;58.28;101404.25;4993627;28;119428;-76
2023/06/29 04:43:06;;;;;;;33.80;22.63;;;;;;;23.60;58.17;101398.81;4991853;28;118908;-75
2023/06/29 04:45:33;;;;;;;35.78;23.30;;;;;;;23.62;58.34;101402.25;4989629;28;124091;-75
2023/06/29 04:48:01;;;;;;;34.35;23.05;;;;;;;23.64;58.21;101400.25;4973826;28;123784;-75
2023/06/29 04:50:35;;;;;;;33.75;23.05;;;;;;;23.67;58.28;101405.38;4992204;28;119537;-74
2023/06/29 04:53:12;;;;;;;36.80;23.53;;;;;;;23.67;58.22;101395.41;4957434;28;118270;-74
2023/06/29 04:55:39;;;;;;;32.50;22.10;;;;;;;23.69;58.36;101397.97;4988817;28;123080;-75
2023/06/29 04:58:07;;;;;;;36.80;22.83;;;;;;;23.70;58.27;101394.31;4990357;28;124701;-75
2023/06/29 05:00:34;;;;;;;34.70;23.23;;;;;;;23.72;58.24;101403.13;4990483;28;119100;-75
2023/06/29 05:03:01;;;;;;;37.60;24.13;;;;;;;23.73;58.00;101399.41;4990379;28;119442;-75
2023/06/29 05:05:28;;;;;;;33.45;22.83;;;;;;;23.75;58.10;101400.13;4979088;28;125178;-75
2023/06/29 05:07:55;;;;;;;35.88;23.48;;;;;;;23.76;58.14;101399.13;4989799;28;123907;-75
2023/06/29 05:10:23;;;;;;;36.45;23.45;;;;;;;23.79;58.26;101393.47;4989275;28;119938;-75
2023/06/29 05:12:50;;;;;;;34.03;22.80;;;;;;;23.80;58.14;101394.34;4989148;28;120178;-75
2023/06/29 05:15:17;;;;;;;34.97;23.75;;;;;;;23.82;58.24;101398.59;4971584;28;122452;-75
2023/06/29 05:17:45;;;;;;;35.97;23.85;;;;;;;23.83;58.31;101400.31;4988629;28;124349;-74
2023/06/29 05:20:14;;;;;;;34.92;23.02;;;;;;;23.85;58.28;101387.50;4989621;28;119286;-75
2023/06/29 05:22:41;;;;;;;35.78;23.98;;;;;;;23.89;58.07;101388.91;4989420;28;119054;-75
2023/06/29 05:25:09;;;;;;;34.30;23.50;;;;;;;23.94;57.96;101384.91;4991668;28;124020;-74
2023/06/29 05:27:36;;;;;;;37.08;23.75;;;;;;;23.96;58.16;101388.34;4982687;28;123737;-74
2023/06/29 05:30:04;;;;;;;37.67;22.90;;;;;;;23.99;58.02;101388.91;4997677;28;119237;-74
2023/06/29 05:32:32;;;;;;;39.28;24.48;;;;;;;24.03;58.21;101389.47;4967192;28;118564;-74
2023/06/29 05:35:00;;;;;;;31.50;22.15;;;;;;;24.06;58.01;101384.63;4987739;28;124809;-75
2023/06/29 05:37:29;;;;;;;35.13;24.17;;;;;;;24.10;58.23;101390.63;4953422;28;124595;-75
2023/06/29 05:39:56;;;;;;;36.20;23.58;;;;;;;24.14;58.05;101391.19;4988755;28;119613;-75
2023/06/29 05:42:24;;;;;;;37.03;23.02;;;;;;;24.15;57.90;101388.34;4954235;28;117961;-75
2023/06/29 05:44:52;;;;;;;34.38;23.02;;;;;;;24.17;57.84;101389.03;4970189;28;123788;-75
2023/06/29 05:47:19;;;;;;;33.50;22.52;;;;;;;24.20;57.96;101386.03;4992114;28;123972;-74
2023/06/29 05:49:46;;;;;;;36.55;24.40;;;;;;;24.23;57.82;101380.34;4977601;28;120103;-74
2023/06/29 05:52:13;;;;;;;34.60;23.55;;;;;;;24.27;57.94;101376.34;4991324;28;119438;-74
2023/06/29 05:54:41;;;;;;;40.40;24.25;;;;;;;24.28;57.74;101378.06;4977001;28;124985;-75
2023/06/29 05:57:08;;;;;;;36.88;23.65;;;;;;;24.32;57.84;101377.75;4964429;28;125169;-75
2023/06/29 06:02:57;;;;;;;33.75;22.35;;;;;;;24.36;57.82;101379.19;4968841;28;119603;-74
2023/06/29 06:05:25;;;;;;;36.22;22.60;;;;;;;24.38;57.81;101372.59;4983312;28;123816;-75
2023/06/29 06:07:52;;;;;;;36.90;22.55;;;;;;;24.42;57.57;101378.59;4982434;28;124827;-76
2023/06/29 06:10:19;;;;;;;36.28;22.65;;;;;;;24.45;57.65;101381.00;4993510;28;119463;-75
2023/06/29 06:12:46;;;;;;;37.95;22.60;;;;;;;24.47;57.33;101381.72;4989701;28;116894;-75
2023/06/29 06:15:14;;;;;;;30.83;20.77;;;;;;;24.51;57.60;101376.88;5001023;28;124234;-75
2023/06/29 06:17:41;;;;;;;36.92;22.75;;;;;;;24.55;57.71;101379.16;4984896;28;124396;-75
2023/06/29 06:20:09;;;;;;;35.15;21.73;;;;;;;24.59;57.31;101377.84;4993001;28;118510;-75
2023/06/29 06:22:36;;;;;;;31.95;20.40;;;;;;;24.63;57.59;101381.97;4986486;28;118851;-75
2023/06/29 06:25:04;;;;;;;32.78;21.58;;;;;;;24.67;57.34;101379.81;4957647;28;123814;-75
2023/06/29 06:27:31;;;;;;;33.50;20.85;;;;;;;24.70;57.08;101376.81;4981720;28;124512;-75
2023/06/29 06:29:59;;;;;;;32.03;21.08;;;;;;;24.74;56.69;101377.38;4980098;28;119036;-75
2023/06/29 06:32:26;;;;;;;34.60;20.15;;;;;;;24.75;57.01;101384.50;4982414;28;118694;-75
2023/06/29 06:34:53;;;;;;;32.85;19.95;;;;;;;24.76;56.75;101386.22;4982560;28;124027;-75
2023/06/29 06:37:20;;;;;;;30.88;20.65;;;;;;;24.78;56.90;101378.78;4985476;28;124107;-75
2023/06/29 06:39:47;;;;;;;28.15;19.40;;;;;;;24.79;56.78;101380.47;4975466;28;119677;-75
2023/06/29 06:42:14;;;;;;;32.40;19.08;;;;;;;24.82;56.67;101374.78;4989089;28;117043;-74
2023/06/29 06:44:51;;;;;;;29.75;18.90;;;;;;;24.86;56.59;101384.28;4992420;28;123478;-75
2023/06/29 06:47:18;;;;;;;31.17;19.73;;;;;;;24.91;56.60;101379.28;4983320;28;123819;-74
2023/06/29 06:49:46;;;;;;;32.90;19.52;;;;;;;24.96;56.46;101384.25;4988483;28;120505;-75
2023/06/29 06:52:14;;;;;;;30.80;19.55;;;;;;;24.99;56.64;101373.97;4965160;28;118865;-75
2023/06/29 06:54:41;;;;;;;31.15;19.30;;;;;;;25.03;55.93;101372.69;4980652;28;124514;-74
2023/06/29 06:57:08;;;;;;;28.92;18.77;;;;;;;25.05;56.25;101378.81;4976844;28;122317;-75
2023/06/29 06:59:35;;;;;;;31.17;19.13;;;;;;;25.09;55.75;101375.78;4988223;28;119995;-75
2023/06/29 07:02:04;;;;;;;28.40;19.10;;;;;;;25.12;55.84;101375.47;4989119;28;118752;-74
2023/06/29 07:04:31;;;;;;;26.55;17.80;;;;;;;25.13;55.82;101371.75;4974232;28;123689;-75
2023/06/29 07:06:59;;;;;;;30.73;19.73;;;;;;;25.13;55.93;101371.75;4979807;28;124109;-75
2023/06/29 07:09:26;;;;;;;32.83;18.80;;;;;;;25.13;55.44;101371.75;4975774;28;118810;-75
2023/06/29 07:11:53;;;;;;;32.08;19.70;;;;;;;25.13;55.70;101377.16;4961730;28;118540;-74
2023/06/29 07:14:23;;;;;;;31.63;18.52;;;;;;;25.14;55.48;101368.03;4989528;28;126153;-74
2023/06/29 07:16:51;;;;;;;33.97;19.08;;;;;;;25.14;55.36;101370.75;4956045;28;123131;-75
2023/06/29 07:19:18;;;;;;;28.98;19.52;;;;;;;25.16;55.49;101371.47;4994593;28;119161;-75
2023/06/29 07:21:48;;;;;;;30.83;18.20;;;;;;;25.19;55.44;101371.16;4986657;28;119912;-75
2023/06/29 07:24:21;;;;;;;30.23;19.10;;;;;;;25.21;55.35;101374.56;4991159;28;124356;-75
2023/06/29 07:26:48;;;;;;;29.65;19.00;;;;;;;25.24;55.58;101379.72;4978465;28;124025;-75
2023/06/29 07:29:15;;;;;;;29.83;18.42;;;;;;;25.28;55.24;101377.53;4980250;28;118877;-75
2023/06/29 07:31:43;;;;;;;31.95;19.40;;;;;;;25.31;55.13;101369.13;4971340;28;118368;-75
2023/06/29 07:34:10;;;;;;;28.75;18.30;;;;;;;25.34;55.03;101368.81;4984378;28;123915;-74
2023/06/29 07:36:38;;;;;;;31.20;18.48;;;;;;;25.38;54.84;101364.78;4989245;28;123981;-75
2023/06/29 07:39:06;;;;;;;31.15;18.95;;;;;;;25.41;55.24;101367.19;4987113;28;120048;-74
2023/06/29 07:41:33;;;;;;;26.90;17.83;;;;;;;25.44;54.89;101370.44;4989283;28;120668;-75
2023/06/29 07:44:00;;;;;;;28.17;19.00;;;;;;;25.49;54.92;101366.44;4982676;28;123932;-75
2023/06/29 07:46:27;;;;;;;29.73;18.38;;;;;;;25.54;54.34;101364.09;4980665;28;124423;-75
2023/06/29 07:48:54;;;;;;;30.10;19.10;;;;;;;25.59;54.66;101359.91;4991849;28;119864;-75
2023/06/29 07:51:22;;;;;;;29.00;17.92;;;;;;;25.63;54.42;101353.16;4985617;28;119250;-75
2023/06/29 07:53:52;;;;;;;29.13;17.88;;;;;;;25.72;53.84;101364.94;4987806;28;123764;-75
2023/06/29 07:56:19;;;;;;;28.63;16.98;;;;;;;25.78;53.75;101361.59;4989394;28;124543;-75
2023/06/29 07:58:46;;;;;;;26.85;17.52;;;;;;;25.89;53.69;101346.09;4998789;28;119016;-74
2023/06/29 08:01:14;;;;;;;27.30;16.77;;;;;;;26.01;53.66;101350.28;4984879;28;118803;-75
2023/06/29 08:03:43;;;;;;;24.65;16.65;;;;;;;26.12;53.09;101347.31;4983598;28;125083;-75
2023/06/29 08:06:17;;;;;;;23.90;16.10;;;;;;;26.25;53.26;101348.78;4966575;28;123663;-75
2023/06/29 08:08:48;;;;;;;27.38;16.67;;;;;;;26.38;52.63;101341.06;4968289;28;119741;-74
2023/06/29 08:11:25;;;;;;;24.55;16.27;;;;;;;26.48;51.99;101344.50;4991370;28;118943;-75
2023/06/29 08:13:59;;;;;;;24.55;16.08;;;;;;;26.58;52.20;101350.69;4976421;28;124021;-75
2023/06/29 08:16:26;;;;;;;24.92;16.42;;;;;;;26.66;51.74;101349.91;4968631;28;124466;-75
2023/06/29 08:18:54;;;;;;;24.17;15.95;;;;;;;26.76;51.64;101349.75;4986655;28;119892;-75
2023/06/29 08:21:21;;;;;;;25.08;16.38;;;;;;;26.85;50.85;101351.50;4969170;28;116939;-75
2023/06/29 08:23:50;;;;;;;24.88;15.38;;;;;;;26.95;50.90;101348.66;4985682;28;124188;-75
2023/06/29 08:26:18;;;;;;;21.73;14.93;;;;;;;27.06;50.45;101345.63;4985542;28;125441;-76
2023/06/29 08:28:45;;;;;;;21.70;14.27;;;;;;;27.14;50.07;101347.53;4985233;28;120661;-74
2023/06/29 08:31:12;;;;;;;23.73;15.15;;;;;;;27.20;49.59;101352.31;4984429;28;120096;-74
2023/06/29 08:33:40;;;;;;;24.92;15.90;;;;;;;27.24;49.75;101342.81;4964284;28;123615;-74
2023/06/29 08:36:07;;;;;;;27.08;15.70;;;;;;;27.29;49.77;101335.00;4963569;28;124114;-73
2023/06/29 08:38:34;;;;;;;21.70;15.20;;;;;;;27.36;49.26;101341.50;4982772;28;119197;-75
2023/06/29 08:41:04;;;;;;;22.75;14.38;;;;;;;27.42;49.23;101341.84;4966363;28;118234;-75
2023/06/29 08:43:31;;;;;;;22.58;14.85;;;;;;;27.46;48.70;101340.47;4966252;28;124534;-74
2023/06/29 08:45:58;;;;;;;23.63;15.65;;;;;;;27.50;48.50;101341.84;4985655;28;123720;-76
2023/06/29 08:48:27;;;;;;;23.52;14.93;;;;;;;27.55;48.06;101334.03;4986199;28;119744;-72
2023/06/29 08:51:03;;;;;;;24.52;15.25;;;;;;;27.61;48.21;101336.06;4985815;28;119547;-75
2023/06/29 08:53:30;;;;;;;21.00;13.73;;;;;;;27.68;48.06;101339.81;4985321;28;124207;-74
2023/06/29 08:55:58;;;;;;;23.70;14.98;;;;;;;27.73;48.38;101329.28;4971316;28;123900;-73
2023/06/29 08:58:25;;;;;;;20.42;14.32;;;;;;;27.80;47.92;101334.03;4989257;28;119671;-74
2023/06/29 09:00:53;;;;;;;19.10;13.85;;;;;;;27.86;47.58;101331.50;4960217;28;120332;-74
2023/06/29 09:03:25;;;;;;;20.33;14.60;;;;;;;27.90;47.64;101332.03;4970547;28;125455;-73
2023/06/29 09:05:54;;;;;;;19.00;13.65;;;;;;;27.93;47.33;101332.56;4988682;28;124708;-74
2023/06/29 09:08:23;;;;;;;22.40;13.90;;;;;;;27.95;46.96;101332.34;4971170;28;120058;-74
2023/06/29 09:10:51;;;;;;;28.05;14.88;;;;;;;27.94;47.28;101333.41;4988924;28;118949;-74
2023/06/29 09:13:24;;;;;;;20.08;14.43;;;;;;;27.95;46.68;101335.09;4998333;28;123712;-74
2023/06/29 09:16:00;;;;;;;20.83;13.55;;;;;;;27.93;46.58;101326.25;4977531;28;123360;-74
2023/06/29 09:18:32;;;;;;;21.67;14.57;;;;;;;27.94;46.77;101322.50;4962464;28;119455;-76
2023/06/29 09:21:00;;;;;;;26.25;14.07;;;;;;;27.95;46.47;101329.63;4957666;28;118889;-73
2023/06/29 09:23:30;;;;;;;20.23;14.07;;;;;;;27.97;46.29;101322.16;4958311;28;123666;-75
2023/06/29 09:25:58;;;;;;;20.30;14.00;;;;;;;27.95;45.92;101325.06;4977616;28;125019;-77
2023/06/29 09:28:26;;;;;;;20.17;13.82;;;;;;;27.94;45.69;101322.50;4976323;28;118427;-74
2023/06/29 09:30:54;;;;;;;20.63;13.85;;;;;;;27.93;45.85;101321.66;4990864;28;119134;-76
2023/06/29 09:33:25;;;;;;;22.60;13.85;;;;;;;27.95;45.67;101322.34;4968777;28;124153;-75
2023/06/29 09:35:53;;;;;;;20.60;13.90;;;;;;;28.01;45.49;101318.09;4984334;28;125627;-75
2023/06/29 09:38:21;;;;;;;19.90;13.10;;;;;;;28.09;45.63;101309.03;4982301;28;119697;-73
2023/06/29 09:40:53;;;;;;;23.35;13.77;;;;;;;28.17;45.34;101321.78;4989175;28;117631;-74
2023/06/29 09:43:29;;;;;;;19.00;13.93;;;;;;;28.22;44.95;101313.94;4982985;28;124299;-73
2023/06/29 09:46:02;;;;;;;19.58;13.00;;;;;;;28.27;45.11;101317.84;4986428;28;123533;-74
2023/06/29 09:48:31;;;;;;;19.13;13.32;;;;;;;28.31;44.81;101323.78;4982409;28;119893;-73
2023/06/29 09:51:01;;;;;;;20.38;13.63;;;;;;;28.33;44.86;101319.00;4981557;28;118902;-73
2023/06/29 09:53:32;;;;;;;20.80;13.48;;;;;;;28.35;44.44;101325.16;4972324;28;125362;-72
2023/06/29 09:56:02;;;;;;;20.75;13.20;;;;;;;28.39;44.97;101315.63;4952628;28;125469;-73
2023/06/29 09:58:30;;;;;;;20.88;13.15;;;;;;;28.49;44.62;101316.25;4953322;28;119558;-73
2023/06/29 10:00:59;;;;;;;19.25;13.23;;;;;;;28.59;44.48;101317.94;4988026;28;119332;-72
2023/06/29 10:03:27;;;;;;;19.60;12.95;;;;;;;28.64;44.44;101321.00;4946267;28;123766;-72
2023/06/29 10:06:01;;;;;;;19.92;12.93;;;;;;;28.68;44.14;101320.47;4982057;28;123951;-72
2023/06/29 10:08:30;;;;;;;20.00;13.32;;;;;;;28.72;44.10;101320.97;4969239;28;121131;-72
2023/06/29 10:11:01;;;;;;;21.45;14.13;;;;;;;28.74;44.14;101321.63;4987669;28;119956;-72
2023/06/29 10:13:35;;;;;;;21.00;13.40;;;;;;;28.79;44.39;101319.22;4984436;28;123594;-72
2023/06/29 10:16:03;;;;;;;25.17;14.60;;;;;;;28.87;44.14;101319.19;4976035;28;123630;-72
2023/06/29 10:18:34;;;;;;;21.15;14.13;;;;;;;28.91;43.89;101320.56;4987565;28;119258;-72
2023/06/29 10:21:02;;;;;;;20.50;13.40;;;;;;;28.96;44.13;101321.88;4967619;28;119645;-72
2023/06/29 10:23:30;;;;;;;20.63;13.95;;;;;;;29.01;43.73;101319.44;4969917;28;124026;-72
2023/06/29 10:26:00;;;;;;;18.20;12.80;;;;;;;29.04;43.57;101313.66;4973910;28;124239;-71
2023/06/29 10:28:27;;;;;;;19.98;14.25;;;;;;;29.05;43.58;101315.38;4973508;28;120042;-72
2023/06/29 10:31:01;;;;;;;19.25;12.90;;;;;;;29.03;43.29;101311.97;4986796;28;119522;-72
2023/06/29 10:33:28;;;;;;;19.23;12.57;;;;;;;29.00;42.96;101313.16;4966566;28;125215;-72
2023/06/29 10:35:57;;;;;;;18.80;11.65;;;;;;;28.95;42.84;101320.19;4970271;28;124601;-71
2023/06/29 10:38:33;;;;;;;18.75;12.55;;;;;;;28.86;42.56;101322.94;4980940;28;118825;-72
2023/06/29 10:41:04;;;;;;;19.05;11.95;;;;;;;28.80;42.78;101323.69;4979078;28;119621;-72
2023/06/29 10:44:00;;;;;;;18.27;12.52;;;;;;;28.72;42.98;101318.25;4978723;28;123906;-72
2023/06/29 10:46:45;;;;;;;18.58;12.23;;;;;;;28.68;43.00;101319.63;4975374;28;124073;-72
2023/06/29 10:49:26;;;;;;;18.60;11.88;;;;;;;28.66;43.19;101308.88;4984618;28;119526;-72
2023/06/29 10:52:04;;;;;;;19.20;12.57;;;;;;;28.67;42.94;101320.63;4986382;28;119587;-72
2023/06/29 10:54:31;;;;;;;18.00;12.07;;;;;;;28.65;42.98;101317.25;4977452;28;124160;-71
2023/06/29 10:57:06;;;;;;;18.52;12.52;;;;;;;28.65;43.22;101317.25;4986615;28;124746;-72
2023/06/29 10:59:36;;;;;;;18.52;11.50;;;;;;;28.65;42.90;101307.22;4986648;28;120117;-72
2023/06/29 11:02:03;;;;;;;17.58;11.35;;;;;;;28.63;42.57;101311.13;4970066;28;119963;-72
2023/06/29 11:04:31;;;;;;;16.85;11.40;;;;;;;28.60;43.01;101322.41;4973378;28;124072;-71
2023/06/29 11:07:06;;;;;;;17.02;11.23;;;;;;;28.59;42.87;101304.31;4965675;28;125659;-72
2023/06/29 11:09:34;;;;;;;17.10;11.40;;;;;;;28.58;42.66;101308.09;4984309;28;119157;-71
2023/06/29 11:12:02;;;;;;;18.45;11.90;;;;;;;28.56;42.55;101310.13;4969057;28;118868;-71